Pauline, KS (66619)

4:23 AM CST on February 10, 2016 (GMT -0600)
Quail Run | | Change Station
CLOSE
Current Station
Personal Weather Station
Location: Topeka, KS
Elevation: 1007 ft
Nearby Weather Stations

Elev 1007 ft 38.97 °N, 95.72 °W | Updated 5 seconds ago

Overcast
Overcast
24.6 °F
Feels Like 25 °F
N
0.9
Wind Variable Wind from SSW
Gusts 2.5 mph

Today
High -- | Low -- °F
--% Chance of Precip.
Yesterday
High -- | Low -- °F
Precip. -- in
Pressure 30.22 in
Visibility 10.0 miles
Clouds Overcast 9000 ft
Windchill 25 °F
Dew Point 13 °F
Humidity 60%
Rainfall 0.00 in
Snow Depth Not available.
7:20 AM 5:54 PM
Waxing Crescent, 4% visible
METAR KFOE 100953Z 21006KT 10SM OVC090 M04/M09 A3018 RMK AO2 SLP231 T10441094
Pressure 30.22 in
Visibility 10.0 miles
Clouds Overcast 9000 ft
Windchill 25 °F
Dew Point 13 °F
Humidity 60%
Rainfall 0.00 in
Snow Depth Not available.
7:20 AM 5:54 PM
Waxing Crescent, 4% visible
METAR KFOE 100953Z 21006KT 10SM OVC090 M04/M09 A3018 RMK AO2 SLP231 T10441094

10-Day Weather Forecast

Almanac

Astronomy

Feb. 10, 2016 Rise Set
Actual Time
Civil Twilight
Nautical Twilight
Astronomical Twilight
Moon
Length of Visible Light
Length of Day
Tomorrow will be .
, % of the Moon is Illuminated

Today's Extremes

State Highs State Lows

Community

WunderPhotos

Upload Photos

1,891,830 photos uploaded!

WunderBlog® & News

Nearby

Air Quality

  Air Quality AQ Index Pollutant
Not available.

Snow Depth

Station Depth Elevation

Earthquake Activity

City Distance Mag. Time & Date
Minimum magnitude displayed is 2.5.

Coastal Water Temperatures

Place Temperature

Stations

Nearby Weather Stations

Station Location Temp. Windchill Dew Point Humidity Wind Precip. Elev Updated Type
                   

Watches & Warnings

There are currently no watches in effect.